Terminal Aerodrome Forecast
Issued by NWS

Home | Current Version | Previous Version | Text Only | Print | Product List | Glossary On
Versions: 1 2 3 4 5 6 7 8 9 10 11 12 13 14
000
FTUS43 KMQT 191700
TAFIWD
TAF
KIWD 191736Z 1918/2018 17017G29KT P6SM BKN060
     FM192100 18014G21KT 6SM -SHRA OVC050
     FM200400 19010KT 6SM BR SCT035 BKN120
     FM200900 24005KT 4SM BR SCT002
     FM201400 27005KT P6SM SCT008
      AMD LTD TO CLD VIS AND WIND=

USA.gov is the U.S. government's official web portal to all federal, state and local government web resources and services.